sensor_id;sensor_type;location;lat;lon;timestamp;pressure;altitude;pressure_sealevel;temperature;humidity
163;BME280;3946;48.958;8.284;2024-01-30T00:00:32;101943.41;;;0.25;100.00
163;BME280;3946;48.958;8.284;2024-01-30T00:03:18;101949.38;;;0.28;100.00
163;BME280;3946;48.958;8.284;2024-01-30T00:06:04;101938.31;;;0.26;100.00
163;BME280;3946;48.958;8.284;2024-01-30T00:08:49;101951.88;;;0.21;100.00
163;BME280;3946;48.958;8.284;2024-01-30T00:11:34;101951.09;;;0.32;100.00
163;BME280;3946;48.958;8.284;2024-01-30T00:14:20;101951.03;;;0.20;100.00
163;BME280;3946;48.958;8.284;2024-01-30T00:17:07;101957.81;;;0.14;100.00
163;BME280;3946;48.958;8.284;2024-01-30T00:19:52;101945.88;;;0.08;100.00
163;BME280;3946;48.958;8.284;2024-01-30T00:22:37;101957.78;;;0.09;100.00
163;BME280;3946;48.958;8.284;2024-01-30T00:25:23;101953.50;;;0.04;100.00
163;BME280;3946;48.958;8.284;2024-01-30T00:28:08;101952.63;;;-0.05;100.00
163;BME280;3946;48.958;8.284;2024-01-30T00:30:53;101961.06;;;-0.10;100.00
163;BME280;3946;48.958;8.284;2024-01-30T00:33:40;101956.78;;;-0.14;100.00
163;BME280;3946;48.958;8.284;2024-01-30T00:36:25;101963.63;;;-0.09;100.00
163;BME280;3946;48.958;8.284;2024-01-30T00:39:13;101967.88;;;-0.08;100.00
163;BME280;3946;48.958;8.284;2024-01-30T00:42:00;101970.41;;;-0.11;100.00
163;BME280;3946;48.958;8.284;2024-01-30T00:44:45;101974.66;;;-0.10;100.00
163;BME280;3946;48.958;8.284;2024-01-30T00:47:30;101973.75;;;-0.19;100.00
163;BME280;3946;48.958;8.284;2024-01-30T00:50:18;101969.47;;;-0.25;100.00
163;BME280;3946;48.958;8.284;2024-01-30T00:53:04;101970.31;;;-0.24;100.00
163;BME280;3946;48.958;8.284;2024-01-30T00:55:49;101965.22;;;-0.23;100.00
163;BME280;3946;48.958;8.284;2024-01-30T00:58:34;101961.84;;;-0.23;100.00
163;BME280;3946;48.958;8.284;2024-01-30T01:01:19;101967.94;;;0.00;100.00
163;BME280;3946;48.958;8.284;2024-01-30T01:04:05;101956.06;;;0.05;100.00
163;BME280;3946;48.958;8.284;2024-01-30T01:06:52;101961.22;;;0.16;100.00
163;BME280;3946;48.958;8.284;2024-01-30T01:09:37;101962.09;;;0.25;100.00
163;BME280;3946;48.958;8.284;2024-01-30T01:12:23;101966.44;;;0.45;100.00
163;BME280;3946;48.958;8.284;2024-01-30T01:15:08;101962.31;;;0.91;100.00
163;BME280;3946;48.958;8.284;2024-01-30T01:17:54;101958.00;;;0.65;100.00
163;BME280;3946;48.958;8.284;2024-01-30T01:20:39;101961.31;;;0.42;100.00
163;BME280;3946;48.958;8.284;2024-01-30T01:23:26;101953.66;;;0.31;100.00
163;BME280;3946;48.958;8.284;2024-01-30T01:26:11;101951.06;;;0.28;100.00
163;BME280;3946;48.958;8.284;2024-01-30T01:28:57;101958.72;;;0.26;100.00
163;BME280;3946;48.958;8.284;2024-01-30T01:31:42;101957.81;;;0.20;100.00
163;BME280;3946;48.958;8.284;2024-01-30T01:34:28;101958.63;;;0.11;100.00
163;BME280;3946;48.958;8.284;2024-01-30T01:37:13;101960.41;;;0.26;100.00
163;BME280;3946;48.958;8.284;2024-01-30T01:40:00;101962.06;;;0.13;100.00
163;BME280;3946;48.958;8.284;2024-01-30T01:42:45;101960.31;;;0.09;100.00
163;BME280;3946;48.958;8.284;2024-01-30T01:45:30;101959.44;;;0.03;100.00
163;BME280;3946;48.958;8.284;2024-01-30T01:48:16;101954.31;;;-0.04;100.00
163;BME280;3946;48.958;8.284;2024-01-30T01:51:01;101943.25;;;-0.06;100.00
163;BME280;3946;48.958;8.284;2024-01-30T01:53:47;101953.44;;;-0.09;100.00
163;BME280;3946;48.958;8.284;2024-01-30T01:56:34;101950.84;;;-0.12;100.00
163;BME280;3946;48.958;8.284;2024-01-30T01:59:21;101950.84;;;-0.18;100.00
163;BME280;3946;48.958;8.284;2024-01-30T02:02:08;101955.06;;;-0.15;100.00
163;BME280;3946;48.958;8.284;2024-01-30T02:04:56;101956.69;;;-0.29;100.00
163;BME280;3946;48.958;8.284;2024-01-30T02:07:42;101949.88;;;-0.37;100.00
163;BME280;3946;48.958;8.284;2024-01-30T02:10:28;101953.22;;;-0.41;100.00
163;BME280;3946;48.958;8.284;2024-01-30T02:13:14;101960.88;;;-0.39;100.00
163;BME280;3946;48.958;8.284;2024-01-30T02:16:00;101960.06;;;-0.37;100.00
163;BME280;3946;48.958;8.284;2024-01-30T02:18:46;101946.53;;;-0.25;100.00
163;BME280;3946;48.958;8.284;2024-01-30T02:21:33;101957.47;;;-0.40;100.00
163;BME280;3946;48.958;8.284;2024-01-30T02:24:18;101961.09;;;-0.04;100.00
163;BME280;3946;48.958;8.284;2024-01-30T02:27:04;101958.75;;;0.37;100.00
163;BME280;3946;48.958;8.284;2024-01-30T02:29:49;101957.97;;;0.47;100.00
163;BME280;3946;48.958;8.284;2024-01-30T02:32:34;101945.84;;;-0.03;100.00
163;BME280;3946;48.958;8.284;2024-01-30T02:35:20;101944.91;;;-0.18;100.00
163;BME280;3946;48.958;8.284;2024-01-30T02:38:06;101943.09;;;-0.30;100.00
163;BME280;3946;48.958;8.284;2024-01-30T02:40:52;101947.28;;;-0.40;100.00
163;BME280;3946;48.958;8.284;2024-01-30T02:43:37;101937.06;;;-0.46;100.00
163;BME280;3946;48.958;8.284;2024-01-30T02:46:23;101946.38;;;-0.52;100.00
163;BME280;3946;48.958;8.284;2024-01-30T02:49:08;101938.66;;;-0.60;100.00
163;BME280;3946;48.958;8.284;2024-01-30T02:51:53;101946.28;;;-0.60;100.00
163;BME280;3946;48.958;8.284;2024-01-30T02:54:40;101945.41;;;-0.62;100.00
163;BME280;3946;48.958;8.284;2024-01-30T02:57:25;101950.50;;;-0.65;100.00
163;BME280;3946;48.958;8.284;2024-01-30T03:00:12;101950.44;;;-0.71;100.00
163;BME280;3946;48.958;8.284;2024-01-30T03:02:58;101953.03;;;-0.68;100.00
163;BME280;3946;48.958;8.284;2024-01-30T03:05:43;101947.91;;;-0.71;100.00
163;BME280;3946;48.958;8.284;2024-01-30T03:08:28;101956.44;;;-0.67;100.00
163;BME280;3946;48.958;8.284;2024-01-30T03:11:15;101958.09;;;-0.71;100.00
163;BME280;3946;48.958;8.284;2024-01-30T03:14:01;101958.97;;;-0.64;100.00
163;BME280;3946;48.958;8.284;2024-01-30T03:16:46;101959.03;;;-0.58;100.00
163;BME280;3946;48.958;8.284;2024-01-30T03:19:31;101959.84;;;-0.62;100.00
163;BME280;3946;48.958;8.284;2024-01-30T03:22:17;101964.91;;;-0.64;100.00
163;BME280;3946;48.958;8.284;2024-01-30T03:25:03;101953.03;;;-0.66;100.00
163;BME280;3946;48.958;8.284;2024-01-30T03:27:50;101961.50;;;-0.67;100.00
163;BME280;3946;48.958;8.284;2024-01-30T03:30:35;101961.56;;;-0.58;100.00
163;BME280;3946;48.958;8.284;2024-01-30T03:33:20;101967.41;;;-0.72;100.00
163;BME280;3946;48.958;8.284;2024-01-30T03:36:06;101964.81;;;-0.78;100.00
163;BME280;3946;48.958;8.284;2024-01-30T03:38:51;101963.06;;;-0.80;100.00
163;BME280;3946;48.958;8.284;2024-01-30T03:41:37;101957.13;;;-0.85;100.00
163;BME280;3946;48.958;8.284;2024-01-30T03:44:23;101957.16;;;-0.82;100.00
163;BME280;3946;48.958;8.284;2024-01-30T03:47:08;101963.94;;;-0.80;100.00
163;BME280;3946;48.958;8.284;2024-01-30T03:49:54;101960.53;;;-0.83;100.00
163;BME280;3946;48.958;8.284;2024-01-30T03:52:39;101959.63;;;-0.88;100.00
163;BME280;3946;48.958;8.284;2024-01-30T03:55:24;101961.25;;;-0.93;100.00
163;BME280;3946;48.958;8.284;2024-01-30T03:58:10;101960.44;;;-0.92;100.00
163;BME280;3946;48.958;8.284;2024-01-30T04:00:56;101966.41;;;-0.87;100.00
163;BME280;3946;48.958;8.284;2024-01-30T04:03:42;101966.44;;;-0.86;100.00
163;BME280;3946;48.958;8.284;2024-01-30T04:06:28;101953.59;;;-0.96;100.00
163;BME280;3946;48.958;8.284;2024-01-30T04:09:13;101974.09;;;-0.84;100.00
163;BME280;3946;48.958;8.284;2024-01-30T04:11:58;101973.28;;;-0.82;100.00
163;BME280;3946;48.958;8.284;2024-01-30T04:14:44;101966.47;;;-0.83;100.00
163;BME280;3946;48.958;8.284;2024-01-30T04:17:30;101965.63;;;-0.82;100.00
163;BME280;3946;48.958;8.284;2024-01-30T04:20:16;101964.78;;;-0.79;100.00
163;BME280;3946;48.958;8.284;2024-01-30T04:23:02;101963.94;;;-0.80;100.00
163;BME280;3946;48.958;8.284;2024-01-30T04:25:47;101967.41;;;-0.72;100.00
163;BME280;3946;48.958;8.284;2024-01-30T04:28:33;101976.75;;;-0.71;100.00
163;BME280;3946;48.958;8.284;2024-01-30T04:31:18;101971.66;;;-0.71;100.00
163;BME280;3946;48.958;8.284;2024-01-30T04:34:05;101974.16;;;-0.75;100.00
163;BME280;3946;48.958;8.284;2024-01-30T04:36:50;101970.72;;;-0.79;100.00
163;BME280;3946;48.958;8.284;2024-01-30T04:39:35;101969.88;;;-0.82;100.00
163;BME280;3946;48.958;8.284;2024-01-30T04:42:21;101974.13;;;-0.81;100.00
163;BME280;3946;48.958;8.284;2024-01-30T04:45:07;101971.53;;;-0.86;100.00
163;BME280;3946;48.958;8.284;2024-01-30T04:47:52;101969.84;;;-0.85;100.00
163;BME280;3946;48.958;8.284;2024-01-30T04:50:39;101976.63;;;-0.86;100.00
163;BME280;3946;48.958;8.284;2024-01-30T04:53:24;101971.47;;;-0.90;100.00
163;BME280;3946;48.958;8.284;2024-01-30T04:56:09;101969.75;;;-0.93;100.00
163;BME280;3946;48.958;8.284;2024-01-30T04:58:55;101970.59;;;-0.92;100.00
163;BME280;3946;48.958;8.284;2024-01-30T05:01:40;101974.84;;;-0.91;100.00
163;BME280;3946;48.958;8.284;2024-01-30T05:04:26;101973.25;;;-0.83;100.00
163;BME280;3946;48.958;8.284;2024-01-30T05:07:12;101976.50;;;-0.96;100.00
163;BME280;3946;48.958;8.284;2024-01-30T05:09:58;101968.88;;;-0.98;100.00
163;BME280;3946;48.958;8.284;2024-01-30T05:12:43;101975.69;;;-0.94;100.00
163;BME280;3946;48.958;8.284;2024-01-30T05:15:29;101981.06;;;-0.62;100.00
163;BME280;3946;48.958;8.284;2024-01-30T05:18:14;101979.16;;;-0.86;100.00
163;BME280;3946;48.958;8.284;2024-01-30T05:21:00;101986.78;;;-0.87;100.00
163;BME280;3946;48.958;8.284;2024-01-30T05:23:47;101978.25;;;-0.91;100.00
163;BME280;3946;48.958;8.284;2024-01-30T05:26:32;101989.25;;;-0.92;100.00
163;BME280;3946;48.958;8.284;2024-01-30T05:29:18;101970.56;;;-0.98;100.00
163;BME280;3946;48.958;8.284;2024-01-30T05:32:03;101972.31;;;-0.91;100.00
163;BME280;3946;48.958;8.284;2024-01-30T05:34:50;101980.75;;;-0.94;100.00
163;BME280;3946;48.958;8.284;2024-01-30T05:37:35;101987.47;;;-1.02;100.00
163;BME280;3946;48.958;8.284;2024-01-30T05:40:22;101995.06;;;-1.05;100.00
163;BME280;3946;48.958;8.284;2024-01-30T05:43:07;101988.34;;;-1.01;100.00
163;BME280;3946;48.958;8.284;2024-01-30T05:45:53;101984.28;;;-0.81;100.00
163;BME280;3946;48.958;8.284;2024-01-30T05:48:38;101986.78;;;-0.86;100.00
163;BME280;3946;48.958;8.284;2024-01-30T05:51:23;101998.56;;;-0.94;100.00
163;BME280;3946;48.958;8.284;2024-01-30T05:54:09;101992.56;;;-1.02;100.00
163;BME280;3946;48.958;8.284;2024-01-30T05:56:55;102002.66;;;-1.10;100.00
163;BME280;3946;48.958;8.284;2024-01-30T05:59:41;102009.47;;;-1.07;100.00
163;BME280;3946;48.958;8.284;2024-01-30T06:02:27;102001.88;;;-1.04;100.00
163;BME280;3946;48.958;8.284;2024-01-30T06:05:13;102006.03;;;-1.09;100.00
163;BME280;3946;48.958;8.284;2024-01-30T06:07:58;102006.84;;;-1.12;100.00
163;BME280;3946;48.958;8.284;2024-01-30T06:10:43;102000.09;;;-1.11;100.00
163;BME280;3946;48.958;8.284;2024-01-30T06:13:30;101994.13;;;-1.16;100.00
163;BME280;3946;48.958;8.284;2024-01-30T06:16:15;102000.91;;;-1.15;100.00
163;BME280;3946;48.958;8.284;2024-01-30T06:19:01;101994.13;;;-1.16;100.00
163;BME280;3946;48.958;8.284;2024-01-30T06:21:46;101991.53;;;-1.19;100.00
163;BME280;3946;48.958;8.284;2024-01-30T06:24:31;101992.44;;;-1.11;100.00
163;BME280;3946;48.958;8.284;2024-01-30T06:27:17;101995.84;;;-1.11;100.00
163;BME280;3946;48.958;8.284;2024-01-30T06:30:05;101995.88;;;-1.09;100.00
163;BME280;3946;48.958;8.284;2024-01-30T06:32:50;101992.50;;;-1.07;100.00
163;BME280;3946;48.958;8.284;2024-01-30T06:35:36;101999.31;;;-1.04;100.00
163;BME280;3946;48.958;8.284;2024-01-30T06:38:24;101995.91;;;-1.06;100.00
163;BME280;3946;48.958;8.284;2024-01-30T06:41:09;101991.84;;;-0.89;100.00
163;BME280;3946;48.958;8.284;2024-01-30T06:43:54;101995.13;;;-1.00;100.00
163;BME280;3946;48.958;8.284;2024-01-30T06:46:41;102001.00;;;-1.06;100.00
163;BME280;3946;48.958;8.284;2024-01-30T06:49:26;101996.69;;;-1.10;100.00
163;BME280;3946;48.958;8.284;2024-01-30T06:52:12;101995.06;;;-1.05;100.00
163;BME280;3946;48.958;8.284;2024-01-30T06:54:58;101973.78;;;-1.13;100.00
163;BME280;3946;48.958;8.284;2024-01-30T06:57:43;101995.16;;;-0.99;100.00
163;BME280;3946;48.958;8.284;2024-01-30T07:00:28;101993.53;;;-0.89;100.00
163;BME280;3946;48.958;8.284;2024-01-30T07:03:15;101998.69;;;-0.85;100.00
163;BME280;3946;48.958;8.284;2024-01-30T07:06:00;102004.63;;;-0.80;100.00
163;BME280;3946;48.958;8.284;2024-01-30T07:08:46;102005.47;;;-0.84;100.00
163;BME280;3946;48.958;8.284;2024-01-30T07:11:31;101991.06;;;-0.82;100.00
163;BME280;3946;48.958;8.284;2024-01-30T07:14:17;102002.22;;;-0.67;100.00
163;BME280;3946;48.958;8.284;2024-01-30T07:17:02;101997.06;;;-0.75;100.00
163;BME280;3946;48.958;8.284;2024-01-30T07:19:49;102003.91;;;-0.68;100.00
163;BME280;3946;48.958;8.284;2024-01-30T07:22:34;102003.03;;;-0.72;100.00
163;BME280;3946;48.958;8.284;2024-01-30T07:25:20;102003.03;;;-0.72;100.00
163;BME280;3946;48.958;8.284;2024-01-30T07:28:05;102005.63;;;-0.67;100.00
163;BME280;3946;48.958;8.284;2024-01-30T07:30:50;102012.38;;;-0.71;100.00
163;BME280;3946;48.958;8.284;2024-01-30T07:33:36;102004.84;;;-0.57;100.00
163;BME280;3946;48.958;8.284;2024-01-30T07:36:22;102014.25;;;-0.51;100.00
163;BME280;3946;48.958;8.284;2024-01-30T07:39:08;102011.72;;;-0.50;100.00
163;BME280;3946;48.958;8.284;2024-01-30T07:41:54;102022.81;;;-0.40;100.00
163;BME280;3946;48.958;8.284;2024-01-30T07:44:39;102015.28;;;-0.25;100.00
163;BME280;3946;48.958;8.284;2024-01-30T07:47:24;102013.72;;;-0.08;100.00
163;BME280;3946;48.958;8.284;2024-01-30T07:50:10;102018.13;;;0.18;100.00
163;BME280;3946;48.958;8.284;2024-01-30T07:52:58;102017.25;;;0.17;100.00
163;BME280;3946;48.958;8.284;2024-01-30T07:55:44;102015.66;;;0.33;100.00
163;BME280;3946;48.958;8.284;2024-01-30T07:58:30;102017.38;;;0.31;100.00
163;BME280;3946;48.958;8.284;2024-01-30T08:01:15;102019.94;;;0.40;100.00
163;BME280;3946;48.958;8.284;2024-01-30T08:04:01;102019.16;;;0.55;100.00
163;BME280;3946;48.958;8.284;2024-01-30T08:06:46;102020.91;;;0.62;100.00
163;BME280;3946;48.958;8.284;2024-01-30T08:09:33;102020.13;;;0.84;100.00
163;BME280;3946;48.958;8.284;2024-01-30T08:12:18;102022.75;;;1.07;100.00
163;BME280;3946;48.958;8.284;2024-01-30T08:15:05;102016.84;;;1.28;100.00
163;BME280;3946;48.958;8.284;2024-01-30T08:17:50;102019.41;;;1.42;100.00
163;BME280;3946;48.958;8.284;2024-01-30T08:20:39;102012.59;;;1.59;100.00
163;BME280;3946;48.958;8.284;2024-01-30T08:23:24;102023.63;;;1.79;100.00
163;BME280;3946;48.958;8.284;2024-01-30T08:26:11;102011.72;;;1.93;100.00
163;BME280;3946;48.958;8.284;2024-01-30T08:28:56;102015.94;;;2.11;100.00
163;BME280;3946;48.958;8.284;2024-01-30T08:31:42;102020.19;;;2.20;100.00
163;BME280;3946;48.958;8.284;2024-01-30T08:34:28;102019.28;;;2.36;100.00
163;BME280;3946;48.958;8.284;2024-01-30T08:37:13;102013.28;;;2.46;100.00
163;BME280;3946;48.958;8.284;2024-01-30T08:40:00;102010.69;;;2.49;100.00
163;BME280;3946;48.958;8.284;2024-01-30T08:42:47;101999.59;;;2.58;100.00
163;BME280;3946;48.958;8.284;2024-01-30T08:45:32;102014.06;;;2.63;100.00
163;BME280;3946;48.958;8.284;2024-01-30T08:48:18;102005.56;;;2.58;100.00
163;BME280;3946;48.958;8.284;2024-01-30T08:51:04;102003.66;;;2.94;100.00
163;BME280;3946;48.958;8.284;2024-01-30T08:53:52;102012.16;;;3.02;100.00
163;BME280;3946;48.958;8.284;2024-01-30T08:56:38;102003.63;;;3.04;100.00
163;BME280;3946;48.958;8.284;2024-01-30T08:59:24;102001.84;;;3.14;100.00
163;BME280;3946;48.958;8.284;2024-01-30T09:02:09;101993.31;;;3.10;100.00
163;BME280;3946;48.958;8.284;2024-01-30T09:04:56;102007.91;;;2.98;100.00
163;BME280;3946;48.958;8.284;2024-01-30T09:07:42;102002.84;;;2.89;100.00
163;BME280;3946;48.958;8.284;2024-01-30T09:10:27;101995.94;;;3.07;100.00
163;BME280;3946;48.958;8.284;2024-01-30T09:13:13;101999.28;;;3.15;100.00
163;BME280;3946;48.958;8.284;2024-01-30T09:15:59;102000.13;;;3.16;100.00
163;BME280;3946;48.958;8.284;2024-01-30T09:18:45;102003.38;;;3.39;100.00
163;BME280;3946;48.958;8.284;2024-01-30T09:21:30;102005.59;;;3.79;100.00
163;BME280;3946;48.958;8.284;2024-01-30T09:24:15;101998.63;;;3.92;100.00
163;BME280;3946;48.958;8.284;2024-01-30T09:27:01;102001.63;;;4.33;100.00
163;BME280;3946;48.958;8.284;2024-01-30T09:29:46;102002.34;;;4.44;100.00
163;BME280;3946;48.958;8.284;2024-01-30T09:32:32;101993.69;;;4.54;100.00
163;BME280;3946;48.958;8.284;2024-01-30T09:35:18;101991.69;;;4.76;100.00
163;BME280;3946;48.958;8.284;2024-01-30T09:38:03;101987.44;;;4.74;100.00
163;BME280;3946;48.958;8.284;2024-01-30T09:40:53;101990.47;;;5.03;100.00
163;BME280;3946;48.958;8.284;2024-01-30T09:43:39;101987.00;;;5.04;100.00
163;BME280;3946;48.958;8.284;2024-01-30T09:46:27;101984.75;;;4.83;100.00
163;BME280;3946;48.958;8.284;2024-01-30T09:49:14;101986.69;;;5.25;100.00
163;BME280;3946;48.958;8.284;2024-01-30T09:52:00;101990.59;;;5.51;100.00
163;BME280;3946;48.958;8.284;2024-01-30T09:54:45;101999.16;;;5.50;100.00
163;BME280;3946;48.958;8.284;2024-01-30T09:57:30;101995.94;;;5.86;100.00
163;BME280;3946;48.958;8.284;2024-01-30T10:00:16;102002.38;;;6.13;100.00
163;BME280;3946;48.958;8.284;2024-01-30T10:03:02;102002.03;;;6.30;100.00
163;BME280;3946;48.958;8.284;2024-01-30T10:05:51;102002.38;;;6.13;100.00
163;BME280;3946;48.958;8.284;2024-01-30T10:08:36;102001.94;;;5.90;100.00
163;BME280;3946;48.958;8.284;2024-01-30T10:11:22;102008.66;;;5.97;100.00
163;BME280;3946;48.958;8.284;2024-01-30T10:14:07;102010.88;;;6.17;100.00
163;BME280;3946;48.958;8.284;2024-01-30T10:16:52;102016.97;;;6.13;100.00
163;BME280;3946;48.958;8.284;2024-01-30T10:19:39;102013.09;;;6.33;100.00
163;BME280;3946;48.958;8.284;2024-01-30T10:22:26;102017.47;;;6.31;100.00
163;BME280;3946;48.958;8.284;2024-01-30T10:25:11;102020.81;;;6.33;100.00
163;BME280;3946;48.958;8.284;2024-01-30T10:27:56;102015.13;;;6.18;100.00
163;BME280;3946;48.958;8.284;2024-01-30T10:30:42;102006.69;;;6.54;100.00
163;BME280;3946;48.958;8.284;2024-01-30T10:33:28;102009.66;;;6.35;100.00
163;BME280;3946;48.958;8.284;2024-01-30T10:36:14;102000.88;;;6.46;100.00
163;BME280;3946;48.958;8.284;2024-01-30T10:39:01;102003.06;;;6.64;100.00
163;BME280;3946;48.958;8.284;2024-01-30T10:41:47;101997.81;;;6.69;100.00
163;BME280;3946;48.958;8.284;2024-01-30T10:44:37;101990.97;;;6.66;100.00
163;BME280;3946;48.958;8.284;2024-01-30T10:47:26;101983.03;;;6.77;100.00
163;BME280;3946;48.958;8.284;2024-01-30T10:50:12;101998.34;;;6.83;100.00
163;BME280;3946;48.958;8.284;2024-01-30T10:52:58;102008.53;;;6.89;100.00
163;BME280;3946;48.958;8.284;2024-01-30T10:55:46;102001.50;;;6.97;100.00
163;BME280;3946;48.958;8.284;2024-01-30T10:58:32;102001.28;;;7.07;100.00
163;BME280;3946;48.958;8.284;2024-01-30T11:01:18;101995.53;;;7.31;100.00
163;BME280;3946;48.958;8.284;2024-01-30T11:04:04;101989.13;;;7.47;100.00
163;BME280;3946;48.958;8.284;2024-01-30T11:06:50;101977.19;;;7.45;100.00
163;BME280;3946;48.958;8.284;2024-01-30T11:09:36;101976.84;;;7.58;100.00
163;BME280;3946;48.958;8.284;2024-01-30T11:12:23;101981.06;;;7.61;100.00
163;BME280;3946;48.958;8.284;2024-01-30T11:15:13;101975.94;;;7.93;100.00
163;BME280;3946;48.958;8.284;2024-01-30T11:17:58;101980.13;;;7.96;100.00
163;BME280;3946;48.958;8.284;2024-01-30T11:20:46;101979.53;;;7.86;100.00
163;BME280;3946;48.958;8.284;2024-01-30T11:23:33;101971.09;;;8.12;100.00
163;BME280;3946;48.958;8.284;2024-01-30T11:26:19;101974.75;;;8.05;100.00
163;BME280;3946;48.958;8.284;2024-01-30T11:29:13;101984.56;;;7.92;100.00
163;BME280;3946;48.958;8.284;2024-01-30T11:31:59;101979.09;;;8.35;100.00
163;BME280;3946;48.958;8.284;2024-01-30T11:34:44;101977.53;;;8.28;100.00
163;BME280;3946;48.958;8.284;2024-01-30T11:37:31;101971.78;;;8.50;100.00
163;BME280;3946;48.958;8.284;2024-01-30T11:40:16;101963.84;;;8.85;100.00
163;BME280;3946;48.958;8.284;2024-01-30T11:43:03;101960.25;;;9.17;96.87
163;BME280;3946;48.958;8.284;2024-01-30T11:45:50;101964.03;;;9.07;96.56
163;BME280;3946;48.958;8.284;2024-01-30T11:48:36;101967.56;;;9.31;96.70
163;BME280;3946;48.958;8.284;2024-01-30T11:51:21;101959.88;;;9.01;98.46
163;BME280;3946;48.958;8.284;2024-01-30T11:54:07;101953.88;;;9.27;97.24
163;BME280;3946;48.958;8.284;2024-01-30T11:56:54;101958.09;;;9.30;98.04
163;BME280;3946;48.958;8.284;2024-01-30T11:59:40;101945.50;;;9.45;96.47
163;BME280;3946;48.958;8.284;2024-01-30T12:02:27;101934.53;;;9.64;96.00
163;BME280;3946;48.958;8.284;2024-01-30T12:05:12;101932.00;;;9.62;96.41
163;BME280;3946;48.958;8.284;2024-01-30T12:07:57;101926.31;;;9.53;97.20
163;BME280;3946;48.958;8.284;2024-01-30T12:10:43;101926.94;;;9.59;96.78
163;BME280;3946;48.958;8.284;2024-01-30T12:13:29;101922.78;;;9.55;97.78
163;BME280;3946;48.958;8.284;2024-01-30T12:16:14;101918.06;;;9.66;98.08
163;BME280;3946;48.958;8.284;2024-01-30T12:19:01;101911.50;;;10.06;96.06
163;BME280;3946;48.958;8.284;2024-01-30T12:21:46;101904.09;;;9.95;94.95
163;BME280;3946;48.958;8.284;2024-01-30T12:24:32;101909.88;;;9.78;95.09
163;BME280;3946;48.958;8.284;2024-01-30T12:27:17;101913.22;;;9.57;94.79
163;BME280;3946;48.958;8.284;2024-01-30T12:30:05;101916.38;;;9.90;95.58
163;BME280;3946;48.958;8.284;2024-01-30T12:32:51;101920.38;;;9.99;93.18
163;BME280;3946;48.958;8.284;2024-01-30T12:35:38;101912.16;;;9.88;91.50
163;BME280;3946;48.958;8.284;2024-01-30T12:38:23;101909.88;;;9.78;91.44
163;BME280;3946;48.958;8.284;2024-01-30T12:41:08;101911.41;;;9.59;91.60
163;BME280;3946;48.958;8.284;2024-01-30T12:43:54;101911.00;;;9.71;92.73
163;BME280;3946;48.958;8.284;2024-01-30T12:46:39;101919.28;;;9.81;91.93
163;BME280;3946;48.958;8.284;2024-01-30T12:49:24;101916.00;;;9.76;92.74
163;BME280;3946;48.958;8.284;2024-01-30T12:52:11;101915.25;;;9.47;92.88
163;BME280;3946;48.958;8.284;2024-01-30T12:54:58;101915.38;;;9.69;93.78
163;BME280;3946;48.958;8.284;2024-01-30T12:57:43;101905.50;;;9.80;93.40
163;BME280;3946;48.958;8.284;2024-01-30T13:00:29;101904.44;;;9.86;93.13
163;BME280;3946;48.958;8.284;2024-01-30T13:03:14;101894.69;;;10.16;92.15
163;BME280;3946;48.958;8.284;2024-01-30T13:06:00;101890.56;;;10.35;91.65
163;BME280;3946;48.958;8.284;2024-01-30T13:08:47;101890.44;;;10.38;91.07
163;BME280;3946;48.958;8.284;2024-01-30T13:11:32;101903.31;;;10.40;91.67
163;BME280;3946;48.958;8.284;2024-01-30T13:14:18;101898.03;;;10.43;91.22
163;BME280;3946;48.958;8.284;2024-01-30T13:17:03;101892.84;;;10.43;89.91
163;BME280;3946;48.958;8.284;2024-01-30T13:19:49;101898.66;;;10.49;90.46
163;BME280;3946;48.958;8.284;2024-01-30T13:22:34;101905.19;;;10.36;91.11
163;BME280;3946;48.958;8.284;2024-01-30T13:25:21;101894.78;;;10.38;91.36
163;BME280;3946;48.958;8.284;2024-01-30T13:28:06;101897.44;;;10.58;90.95
163;BME280;3946;48.958;8.284;2024-01-30T13:30:52;101905.09;;;10.61;90.60
163;BME280;3946;48.958;8.284;2024-01-30T13:33:38;101914.56;;;10.62;90.76
163;BME280;3946;48.958;8.284;2024-01-30T13:36:24;101906.78;;;10.62;90.59
163;BME280;3946;48.958;8.284;2024-01-30T13:39:09;101911.84;;;10.65;90.87
163;BME280;3946;48.958;8.284;2024-01-30T13:41:55;101915.22;;;10.89;90.48
163;BME280;3946;48.958;8.284;2024-01-30T13:44:41;101916.50;;;10.79;91.10
163;BME280;3946;48.958;8.284;2024-01-30T13:47:27;101913.06;;;11.00;89.52
163;BME280;3946;48.958;8.284;2024-01-30T13:50:12;101902.44;;;10.84;89.49
163;BME280;3946;48.958;8.284;2024-01-30T13:53:00;101895.13;;;10.94;88.42
163;BME280;3946;48.958;8.284;2024-01-30T13:55:45;101902.00;;;10.95;88.35
163;BME280;3946;48.958;8.284;2024-01-30T13:58:32;101903.28;;;10.85;90.02
163;BME280;3946;48.958;8.284;2024-01-30T14:01:20;101891.47;;;10.78;89.82
163;BME280;3946;48.958;8.284;2024-01-30T14:04:05;101899.41;;;10.95;89.93
163;BME280;3946;48.958;8.284;2024-01-30T14:06:50;101901.16;;;10.95;90.25
163;BME280;3946;48.958;8.284;2024-01-30T14:09:36;101901.94;;;10.75;90.21
163;BME280;3946;48.958;8.284;2024-01-30T14:12:21;101910.03;;;10.89;89.65
163;BME280;3946;48.958;8.284;2024-01-30T14:15:08;101902.97;;;10.93;89.56
163;BME280;3946;48.958;8.284;2024-01-30T14:17:55;101899.59;;;10.91;89.87
163;BME280;3946;48.958;8.284;2024-01-30T14:20:40;101909.47;;;10.59;91.71
163;BME280;3946;48.958;8.284;2024-01-30T14:23:25;101910.78;;;10.71;91.82
163;BME280;3946;48.958;8.284;2024-01-30T14:26:10;101912.25;;;10.76;90.98
163;BME280;3946;48.958;8.284;2024-01-30T14:28:56;101908.25;;;10.69;91.25
163;BME280;3946;48.958;8.284;2024-01-30T14:31:42;101904.97;;;10.64;91.36
163;BME280;3946;48.958;8.284;2024-01-30T14:34:28;101903.50;;;10.57;91.51
163;BME280;3946;48.958;8.284;2024-01-30T14:37:14;101897.88;;;10.69;91.13
163;BME280;3946;48.958;8.284;2024-01-30T14:39:59;101899.22;;;10.56;91.37
163;BME280;3946;48.958;8.284;2024-01-30T14:42:44;101898.72;;;10.70;90.88
163;BME280;3946;48.958;8.284;2024-01-30T14:45:29;101903.13;;;10.68;91.67
163;BME280;3946;48.958;8.284;2024-01-30T14:48:17;101910.09;;;10.66;91.78
163;BME280;3946;48.958;8.284;2024-01-30T14:51:02;101895.94;;;10.52;92.21
163;BME280;3946;48.958;8.284;2024-01-30T14:53:47;101898.47;;;10.54;92.44
163;BME280;3946;48.958;8.284;2024-01-30T14:56:33;101899.44;;;10.51;92.55